<?xml version="1.0" encoding="UTF-8" standalone="no" ?>
<gpx xmlns="http://www.topografix.com/GPX/1/1" xmlns:xsi="http://www.w3.org/2001/XMLSchema-instance" xsi:schemaLocation="http://www.topografix.com/GPX/1/1 http://www.topografix.com/GPX/1/1/gpx.xsd" version="1.1" creator="VisuGPX - https://www.visugpx.com">
  <metadata>
    <name>Tour de France 2019</name>
    <desc><![CDATA[4272km en 2 mois en tandem avec notre petit chien dans le panier avant]]></desc>
  </metadata>
  <trk>
    <name><![CDATA[Tracé 20191023-085929]]></name>
    <trkseg>
      <trkpt lat="43.11284" lon="6.13056">
        <ele>58.544</ele>
        <time>2019-10-23T07:00:08Z</time>
      </trkpt>
      <trkpt lat="43.11276" lon="6.13035">
        <ele>28.14</ele>
        <time>2019-10-23T07:02:08Z</time>
      </trkpt>
      <trkpt lat="43.11305" lon="6.13002">
        <ele>20.087</ele>
        <time>2019-10-23T07:04:32Z</time>
      </trkpt>
      <trkpt lat="43.1133" lon="6.12977">
        <ele>21.822</ele>
        <time>2019-10-23T07:05:14Z</time>
      </trkpt>
      <trkpt lat="43.11355" lon="6.12981">
        <ele>19.434</ele>
        <time>2019-10-23T07:07:08Z</time>
      </trkpt>
      <trkpt lat="43.11367" lon="6.12907">
        <ele>17.346</ele>
        <time>2019-10-23T07:07:56Z</time>
      </trkpt>
      <trkpt lat="43.11476" lon="6.12871">
        <ele>24.759</ele>
        <time>2019-10-23T07:08:26Z</time>
      </trkpt>
      <trkpt lat="43.11606" lon="6.12863">
        <ele>47.456</ele>
        <time>2019-10-23T07:08:59Z</time>
      </trkpt>
      <trkpt lat="43.1171" lon="6.12866">
        <ele>61.559</ele>
        <time>2019-10-23T07:09:29Z</time>
      </trkpt>
      <trkpt lat="43.1176" lon="6.12809">
        <ele>55.312</ele>
        <time>2019-10-23T07:10:29Z</time>
      </trkpt>
      <trkpt lat="43.11768" lon="6.12601">
        <ele>40.036</ele>
        <time>2019-10-23T07:10:59Z</time>
      </trkpt>
      <trkpt lat="43.11772" lon="6.12344">
        <ele>29.068</ele>
        <time>2019-10-23T07:11:32Z</time>
      </trkpt>
      <trkpt lat="43.11762" lon="6.12154">
        <ele>27.448</ele>
        <time>2019-10-23T07:12:02Z</time>
      </trkpt>
      <trkpt lat="43.11792" lon="6.11962">
        <ele>32.801</ele>
        <time>2019-10-23T07:12:32Z</time>
      </trkpt>
      <trkpt lat="43.11863" lon="6.11789">
        <ele>32.454</ele>
        <time>2019-10-23T07:13:02Z</time>
      </trkpt>
      <trkpt lat="43.11908" lon="6.11626">
        <ele>34.942</ele>
        <time>2019-10-23T07:13:33Z</time>
      </trkpt>
      <trkpt lat="43.11965" lon="6.11478">
        <ele>35.481</ele>
        <time>2019-10-23T07:14:06Z</time>
      </trkpt>
      <trkpt lat="43.12034" lon="6.11333">
        <ele>34.63</ele>
        <time>2019-10-23T07:14:36Z</time>
      </trkpt>
      <trkpt lat="43.1211" lon="6.11138">
        <ele>37.025</ele>
        <time>2019-10-23T07:15:06Z</time>
      </trkpt>
      <trkpt lat="43.1218" lon="6.10965">
        <ele>40.739</ele>
        <time>2019-10-23T07:15:36Z</time>
      </trkpt>
      <trkpt lat="43.12243" lon="6.10768">
        <ele>40.244</ele>
        <time>2019-10-23T07:16:09Z</time>
      </trkpt>
      <trkpt lat="43.12306" lon="6.10602">
        <ele>40.244</ele>
        <time>2019-10-23T07:16:39Z</time>
      </trkpt>
      <trkpt lat="43.12363" lon="6.10447">
        <ele>43.498</ele>
        <time>2019-10-23T07:17:09Z</time>
      </trkpt>
      <trkpt lat="43.12447" lon="6.10324">
        <ele>45.308</ele>
        <time>2019-10-23T07:17:39Z</time>
      </trkpt>
      <trkpt lat="43.12503" lon="6.10188">
        <ele>48.498</ele>
        <time>2019-10-23T07:18:09Z</time>
      </trkpt>
      <trkpt lat="43.12555" lon="6.10005">
        <ele>55.12</ele>
        <time>2019-10-23T07:18:42Z</time>
      </trkpt>
      <trkpt lat="43.12616" lon="6.09891">
        <ele>50.806</ele>
        <time>2019-10-23T07:19:12Z</time>
      </trkpt>
      <trkpt lat="43.12689" lon="6.09838">
        <ele>52.315</ele>
        <time>2019-10-23T07:20:03Z</time>
      </trkpt>
      <trkpt lat="43.12762" lon="6.09681">
        <ele>45.919</ele>
        <time>2019-10-23T07:20:33Z</time>
      </trkpt>
      <trkpt lat="43.128" lon="6.09497">
        <ele>52.406</ele>
        <time>2019-10-23T07:21:06Z</time>
      </trkpt>
      <trkpt lat="43.1284" lon="6.09344">
        <ele>56.648</ele>
        <time>2019-10-23T07:21:36Z</time>
      </trkpt>
      <trkpt lat="43.12879" lon="6.0918">
        <ele>57.356</ele>
        <time>2019-10-23T07:22:06Z</time>
      </trkpt>
      <trkpt lat="43.12918" lon="6.0899">
        <ele>60.376</ele>
        <time>2019-10-23T07:22:36Z</time>
      </trkpt>
      <trkpt lat="43.13035" lon="6.08843">
        <ele>56.359</ele>
        <time>2019-10-23T07:23:06Z</time>
      </trkpt>
      <trkpt lat="43.13135" lon="6.08686">
        <ele>59.424</ele>
        <time>2019-10-23T07:23:39Z</time>
      </trkpt>
      <trkpt lat="43.13199" lon="6.08529">
        <ele>61.381</ele>
        <time>2019-10-23T07:24:09Z</time>
      </trkpt>
      <trkpt lat="43.13289" lon="6.08388">
        <ele>64.392</ele>
        <time>2019-10-23T07:24:39Z</time>
      </trkpt>
      <trkpt lat="43.13382" lon="6.08194">
        <ele>61.147</ele>
        <time>2019-10-23T07:25:09Z</time>
      </trkpt>
      <trkpt lat="43.13478" lon="6.08054">
        <ele>65.075</ele>
        <time>2019-10-23T07:25:42Z</time>
      </trkpt>
      <trkpt lat="43.13595" lon="6.07976">
        <ele>71.966</ele>
        <time>2019-10-23T07:26:12Z</time>
      </trkpt>
      <trkpt lat="43.13839" lon="6.07967">
        <ele>56.192</ele>
        <time>2019-10-23T07:26:42Z</time>
      </trkpt>
      <trkpt lat="43.14067" lon="6.08053">
        <ele>45.204</ele>
        <time>2019-10-23T07:27:12Z</time>
      </trkpt>
      <trkpt lat="43.14283" lon="6.07975">
        <ele>40.954</ele>
        <time>2019-10-23T07:27:42Z</time>
      </trkpt>
      <trkpt lat="43.1446" lon="6.07914">
        <ele>37.169</ele>
        <time>2019-10-23T07:28:15.001Z</time>
      </trkpt>
      <trkpt lat="43.14606" lon="6.07824">
        <ele>38.888</ele>
        <time>2019-10-23T07:28:45.001Z</time>
      </trkpt>
      <trkpt lat="43.14716" lon="6.07668">
        <ele>41.486</ele>
        <time>2019-10-23T07:29:15.001Z</time>
      </trkpt>
      <trkpt lat="43.14833" lon="6.0752">
        <ele>44.279</ele>
        <time>2019-10-23T07:29:45.001Z</time>
      </trkpt>
      <trkpt lat="43.14967" lon="6.07391">
        <ele>55.531</ele>
        <time>2019-10-23T07:30:18.001Z</time>
      </trkpt>
      <trkpt lat="43.15114" lon="6.07307">
        <ele>59.36</ele>
        <time>2019-10-23T07:30:48.001Z</time>
      </trkpt>
      <trkpt lat="43.15252" lon="6.07235">
        <ele>49.788</ele>
        <time>2019-10-23T07:31:18.001Z</time>
      </trkpt>
      <trkpt lat="43.15367" lon="6.07104">
        <ele>51.48</ele>
        <time>2019-10-23T07:31:48.001Z</time>
      </trkpt>
      <trkpt lat="43.15479" lon="6.07001">
        <ele>51.674</ele>
        <time>2019-10-23T07:32:18.001Z</time>
      </trkpt>
      <trkpt lat="43.15588" lon="6.06843">
        <ele>49.772</ele>
        <time>2019-10-23T07:32:51.001Z</time>
      </trkpt>
      <trkpt lat="43.15705" lon="6.06712">
        <ele>50.961</ele>
        <time>2019-10-23T07:33:21.001Z</time>
      </trkpt>
      <trkpt lat="43.1581" lon="6.06578">
        <ele>51.923</ele>
        <time>2019-10-23T07:33:51.001Z</time>
      </trkpt>
      <trkpt lat="43.1591" lon="6.06435">
        <ele>53.896</ele>
        <time>2019-10-23T07:34:21.001Z</time>
      </trkpt>
      <trkpt lat="43.16004" lon="6.06245">
        <ele>56.251</ele>
        <time>2019-10-23T07:34:54.001Z</time>
      </trkpt>
      <trkpt lat="43.16093" lon="6.06068">
        <ele>56.441</ele>
        <time>2019-10-23T07:35:24.001Z</time>
      </trkpt>
      <trkpt lat="43.16086" lon="6.05868">
        <ele>54.214</ele>
        <time>2019-10-23T07:35:54.001Z</time>
      </trkpt>
      <trkpt lat="43.16162" lon="6.05718">
        <ele>59.842</ele>
        <time>2019-10-23T07:36:24.001Z</time>
      </trkpt>
      <trkpt lat="43.1625" lon="6.05572">
        <ele>63.66</ele>
        <time>2019-10-23T07:36:54.001Z</time>
      </trkpt>
      <trkpt lat="43.16342" lon="6.05417">
        <ele>65.308</ele>
        <time>2019-10-23T07:37:27.001Z</time>
      </trkpt>
      <trkpt lat="43.16436" lon="6.05312">
        <ele>66.114</ele>
        <time>2019-10-23T07:37:57.001Z</time>
      </trkpt>
      <trkpt lat="43.16563" lon="6.05265">
        <ele>65.424</ele>
        <time>2019-10-23T07:38:27.001Z</time>
      </trkpt>
      <trkpt lat="43.16692" lon="6.05218">
        <ele>65.369</ele>
        <time>2019-10-23T07:38:57.001Z</time>
      </trkpt>
      <trkpt lat="43.16819" lon="6.05169">
        <ele>66.896</ele>
        <time>2019-10-23T07:39:30.001Z</time>
      </trkpt>
      <trkpt lat="43.16926" lon="6.05128">
        <ele>66.122</ele>
        <time>2019-10-23T07:40:00Z</time>
      </trkpt>
      <trkpt lat="43.16977" lon="6.0519">
        <ele>66.906</ele>
        <time>2019-10-23T07:40:30.001Z</time>
      </trkpt>
      <trkpt lat="43.17079" lon="6.05148">
        <ele>69.474</ele>
        <time>2019-10-23T07:41:00Z</time>
      </trkpt>
      <trkpt lat="43.17181" lon="6.05122">
        <ele>71.774</ele>
        <time>2019-10-23T07:41:30.001Z</time>
      </trkpt>
      <trkpt lat="43.17199" lon="6.04942">
        <ele>74.189</ele>
        <time>2019-10-23T07:42:06.001Z</time>
      </trkpt>
      <trkpt lat="43.17266" lon="6.0487">
        <ele>72.673</ele>
        <time>2019-10-23T07:42:36.001Z</time>
      </trkpt>
      <trkpt lat="43.17317" lon="6.04802">
        <ele>80.455</ele>
        <time>2019-10-23T07:43:06.001Z</time>
      </trkpt>
      <trkpt lat="43.1739" lon="6.04758">
        <ele>79.823</ele>
        <time>2019-10-23T07:43:36.001Z</time>
      </trkpt>
      <trkpt lat="43.17566" lon="6.04748">
        <ele>79.123</ele>
        <time>2019-10-23T07:44:09.001Z</time>
      </trkpt>
      <trkpt lat="43.17711" lon="6.04747">
        <ele>80.045</ele>
        <time>2019-10-23T07:44:39.001Z</time>
      </trkpt>
      <trkpt lat="43.17847" lon="6.04704">
        <ele>81.209</ele>
        <time>2019-10-23T07:45:09.001Z</time>
      </trkpt>
      <trkpt lat="43.17964" lon="6.04622">
        <ele>84.134</ele>
        <time>2019-10-23T07:45:39.001Z</time>
      </trkpt>
      <trkpt lat="43.18084" lon="6.04541">
        <ele>84.164</ele>
        <time>2019-10-23T07:46:09.001Z</time>
      </trkpt>
      <trkpt lat="43.18208" lon="6.04452">
        <ele>84.043</ele>
        <time>2019-10-23T07:46:42.001Z</time>
      </trkpt>
      <trkpt lat="43.18334" lon="6.04354">
        <ele>88.103</ele>
        <time>2019-10-23T07:47:12.001Z</time>
      </trkpt>
      <trkpt lat="43.18435" lon="6.04246">
        <ele>88.335</ele>
        <time>2019-10-23T07:47:42.001Z</time>
      </trkpt>
      <trkpt lat="43.18533" lon="6.04126">
        <ele>87.146</ele>
        <time>2019-10-23T07:48:12.001Z</time>
      </trkpt>
      <trkpt lat="43.18628" lon="6.04004">
        <ele>89.069</ele>
        <time>2019-10-23T07:48:45.001Z</time>
      </trkpt>
      <trkpt lat="43.18702" lon="6.03912">
        <ele>96.566</ele>
        <time>2019-10-23T07:49:15.001Z</time>
      </trkpt>
      <trkpt lat="43.18762" lon="6.03824">
        <ele>103.22</ele>
        <time>2019-10-23T07:49:45.001Z</time>
      </trkpt>
      <trkpt lat="43.18903" lon="6.037">
        <ele>95.559</ele>
        <time>2019-10-23T07:50:15.001Z</time>
      </trkpt>
      <trkpt lat="43.19149" lon="6.0371">
        <ele>87.19</ele>
        <time>2019-10-23T07:50:45.001Z</time>
      </trkpt>
      <trkpt lat="43.19318" lon="6.0382">
        <ele>85.993</ele>
        <time>2019-10-23T07:51:18.001Z</time>
      </trkpt>
      <trkpt lat="43.19426" lon="6.03761">
        <ele>90.127</ele>
        <time>2019-10-23T07:51:48.001Z</time>
      </trkpt>
      <trkpt lat="43.19541" lon="6.03743">
        <ele>94.191</ele>
        <time>2019-10-23T07:52:18.001Z</time>
      </trkpt>
      <trkpt lat="43.19649" lon="6.0374">
        <ele>93.234</ele>
        <time>2019-10-23T07:52:48.001Z</time>
      </trkpt>
      <trkpt lat="43.19718" lon="6.03586">
        <ele>94.577</ele>
        <time>2019-10-23T07:53:21.001Z</time>
      </trkpt>
      <trkpt lat="43.19802" lon="6.03592">
        <ele>89.781</ele>
        <time>2019-10-23T07:53:51.001Z</time>
      </trkpt>
      <trkpt lat="43.19831" lon="6.03445">
        <ele>95.384</ele>
        <time>2019-10-23T07:54:21.001Z</time>
      </trkpt>
      <trkpt lat="43.19895" lon="6.03329">
        <ele>101.658</ele>
        <time>2019-10-23T07:54:51.001Z</time>
      </trkpt>
      <trkpt lat="43.19978" lon="6.03213">
        <ele>101.227</ele>
        <time>2019-10-23T07:55:21.001Z</time>
      </trkpt>
      <trkpt lat="43.201" lon="6.03065">
        <ele>101.337</ele>
        <time>2019-10-23T07:55:54.001Z</time>
      </trkpt>
      <trkpt lat="43.20223" lon="6.02918">
        <ele>95.08</ele>
        <time>2019-10-23T07:56:24.001Z</time>
      </trkpt>
      <trkpt lat="43.20375" lon="6.02878">
        <ele>98.888</ele>
        <time>2019-10-23T07:56:54.001Z</time>
      </trkpt>
      <trkpt lat="43.2051" lon="6.02895">
        <ele>104.23</ele>
        <time>2019-10-23T07:57:24.001Z</time>
      </trkpt>
      <trkpt lat="43.20658" lon="6.02915">
        <ele>108.659</ele>
        <time>2019-10-23T07:57:57.001Z</time>
      </trkpt>
      <trkpt lat="43.20773" lon="6.02951">
        <ele>110.685</ele>
        <time>2019-10-23T07:58:27.001Z</time>
      </trkpt>
      <trkpt lat="43.2088" lon="6.02934">
        <ele>116.635</ele>
        <time>2019-10-23T07:58:57.001Z</time>
      </trkpt>
      <trkpt lat="43.21022" lon="6.0296">
        <ele>116.911</ele>
        <time>2019-10-23T07:59:27.001Z</time>
      </trkpt>
      <trkpt lat="43.21131" lon="6.02846">
        <ele>112.236</ele>
        <time>2019-10-23T07:59:57.001Z</time>
      </trkpt>
      <trkpt lat="43.21254" lon="6.02728">
        <ele>107.552</ele>
        <time>2019-10-23T08:00:30.001Z</time>
      </trkpt>
      <trkpt lat="43.21387" lon="6.02658">
        <ele>109.442</ele>
        <time>2019-10-23T08:01:00Z</time>
      </trkpt>
      <trkpt lat="43.21542" lon="6.02597">
        <ele>112.6</ele>
        <time>2019-10-23T08:01:30.001Z</time>
      </trkpt>
      <trkpt lat="43.21698" lon="6.02578">
        <ele>113.189</ele>
        <time>2019-10-23T08:02:00Z</time>
      </trkpt>
      <trkpt lat="43.21812" lon="6.02545">
        <ele>114.855</ele>
        <time>2019-10-23T08:02:33.001Z</time>
      </trkpt>
      <trkpt lat="43.21919" lon="6.02484">
        <ele>118.707</ele>
        <time>2019-10-23T08:03:03.001Z</time>
      </trkpt>
      <trkpt lat="43.22024" lon="6.02387">
        <ele>124.96</ele>
        <time>2019-10-23T08:03:33.001Z</time>
      </trkpt>
      <trkpt lat="43.22101" lon="6.02328">
        <ele>125.207</ele>
        <time>2019-10-23T08:04:03.001Z</time>
      </trkpt>
      <trkpt lat="43.22221" lon="6.02313">
        <ele>129.455</ele>
        <time>2019-10-23T08:04:33.001Z</time>
      </trkpt>
      <trkpt lat="43.22375" lon="6.02245">
        <ele>123.435</ele>
        <time>2019-10-23T08:05:06.001Z</time>
      </trkpt>
      <trkpt lat="43.22475" lon="6.02171">
        <ele>127.182</ele>
        <time>2019-10-23T08:05:36.001Z</time>
      </trkpt>
      <trkpt lat="43.22546" lon="6.02069">
        <ele>125.192</ele>
        <time>2019-10-23T08:06:06.001Z</time>
      </trkpt>
      <trkpt lat="43.22569" lon="6.01888">
        <ele>124.194</ele>
        <time>2019-10-23T08:06:36.001Z</time>
      </trkpt>
      <trkpt lat="43.22561" lon="6.01693">
        <ele>120.921</ele>
        <time>2019-10-23T08:07:09.001Z</time>
      </trkpt>
      <trkpt lat="43.22672" lon="6.01541">
        <ele>130.249</ele>
        <time>2019-10-23T08:07:39.001Z</time>
      </trkpt>
      <trkpt lat="43.22809" lon="6.01446">
        <ele>132.638</ele>
        <time>2019-10-23T08:08:09.001Z</time>
      </trkpt>
      <trkpt lat="43.22842" lon="6.01295">
        <ele>136.885</ele>
        <time>2019-10-23T08:08:39.001Z</time>
      </trkpt>
      <trkpt lat="43.22928" lon="6.01166">
        <ele>135.234</ele>
        <time>2019-10-23T08:09:09.001Z</time>
      </trkpt>
      <trkpt lat="43.23082" lon="6.01074">
        <ele>144.532</ele>
        <time>2019-10-23T08:09:42.001Z</time>
      </trkpt>
      <trkpt lat="43.23203" lon="6.00987">
        <ele>144.995</ele>
        <time>2019-10-23T08:10:12.001Z</time>
      </trkpt>
      <trkpt lat="43.23316" lon="6.0088">
        <ele>143.958</ele>
        <time>2019-10-23T08:10:42.001Z</time>
      </trkpt>
      <trkpt lat="43.23457" lon="6.0085">
        <ele>140.146</ele>
        <time>2019-10-23T08:11:12.001Z</time>
      </trkpt>
      <trkpt lat="43.23617" lon="6.00843">
        <ele>144.696</ele>
        <time>2019-10-23T08:11:45.001Z</time>
      </trkpt>
      <trkpt lat="43.23714" lon="6.00701">
        <ele>143.147</ele>
        <time>2019-10-23T08:12:15.001Z</time>
      </trkpt>
      <trkpt lat="43.23783" lon="6.00533">
        <ele>141.456</ele>
        <time>2019-10-23T08:12:45.001Z</time>
      </trkpt>
      <trkpt lat="43.23917" lon="6.00466">
        <ele>146.637</ele>
        <time>2019-10-23T08:13:15.001Z</time>
      </trkpt>
      <trkpt lat="43.24034" lon="6.00431">
        <ele>151.375</ele>
        <time>2019-10-23T08:13:45.001Z</time>
      </trkpt>
      <trkpt lat="43.2413" lon="6.0036">
        <ele>151.545</ele>
        <time>2019-10-23T08:14:18.001Z</time>
      </trkpt>
      <trkpt lat="43.24215" lon="6.00268">
        <ele>152.839</ele>
        <time>2019-10-23T08:14:48.001Z</time>
      </trkpt>
      <trkpt lat="43.24344" lon="6.00116">
        <ele>157.386</ele>
        <time>2019-10-23T08:15:18.001Z</time>
      </trkpt>
      <trkpt lat="43.24453" lon="6.0004">
        <ele>160.013</ele>
        <time>2019-10-23T08:15:48.001Z</time>
      </trkpt>
      <trkpt lat="43.24573" lon="6.00017">
        <ele>160.58</ele>
        <time>2019-10-23T08:16:21.001Z</time>
      </trkpt>
      <trkpt lat="43.24643" lon="5.9999">
        <ele>161.952</ele>
        <time>2019-10-23T08:16:51.001Z</time>
      </trkpt>
      <trkpt lat="43.24711" lon="5.99951">
        <ele>163.052</ele>
        <time>2019-10-23T08:17:21.001Z</time>
      </trkpt>
      <trkpt lat="43.24782" lon="5.99902">
        <ele>166.755</ele>
        <time>2019-10-23T08:17:51.001Z</time>
      </trkpt>
      <trkpt lat="43.2485" lon="5.99867">
        <ele>176.352</ele>
        <time>2019-10-23T08:18:21.001Z</time>
      </trkpt>
      <trkpt lat="43.24943" lon="5.99844">
        <ele>181.848</ele>
        <time>2019-10-23T08:18:54.001Z</time>
      </trkpt>
      <trkpt lat="43.25047" lon="5.99813">
        <ele>183.643</ele>
        <time>2019-10-23T08:19:24.001Z</time>
      </trkpt>
      <trkpt lat="43.25105" lon="5.9967">
        <ele>180.233</ele>
        <time>2019-10-23T08:19:54.001Z</time>
      </trkpt>
      <trkpt lat="43.25111" lon="5.99523">
        <ele>179.69</ele>
        <time>2019-10-23T08:20:24.001Z</time>
      </trkpt>
      <trkpt lat="43.25206" lon="5.99425">
        <ele>181.312</ele>
        <time>2019-10-23T08:20:57.001Z</time>
      </trkpt>
      <trkpt lat="43.25281" lon="5.99305">
        <ele>187.391</ele>
        <time>2019-10-23T08:21:27.001Z</time>
      </trkpt>
      <trkpt lat="43.25382" lon="5.99178">
        <ele>191.249</ele>
        <time>2019-10-23T08:21:57.001Z</time>
      </trkpt>
      <trkpt lat="43.25447" lon="5.99026">
        <ele>187.805</ele>
        <time>2019-10-23T08:22:27.001Z</time>
      </trkpt>
      <trkpt lat="43.25518" lon="5.98869">
        <ele>188.838</ele>
        <time>2019-10-23T08:22:57.001Z</time>
      </trkpt>
      <trkpt lat="43.25585" lon="5.98734">
        <ele>192.229</ele>
        <time>2019-10-23T08:23:30.001Z</time>
      </trkpt>
      <trkpt lat="43.25644" lon="5.98639">
        <ele>195.336</ele>
        <time>2019-10-23T08:24:00Z</time>
      </trkpt>
      <trkpt lat="43.25716" lon="5.98556">
        <ele>197.759</ele>
        <time>2019-10-23T08:24:30.001Z</time>
      </trkpt>
      <trkpt lat="43.2581" lon="5.9849">
        <ele>197.823</ele>
        <time>2019-10-23T08:25:00Z</time>
      </trkpt>
      <trkpt lat="43.25947" lon="5.98403">
        <ele>200.919</ele>
        <time>2019-10-23T08:25:33.001Z</time>
      </trkpt>
      <trkpt lat="43.26051" lon="5.98287">
        <ele>200.391</ele>
        <time>2019-10-23T08:26:03.001Z</time>
      </trkpt>
      <trkpt lat="43.26172" lon="5.98234">
        <ele>200.958</ele>
        <time>2019-10-23T08:26:33.001Z</time>
      </trkpt>
      <trkpt lat="43.26298" lon="5.98306">
        <ele>206.173</ele>
        <time>2019-10-23T08:27:03.001Z</time>
      </trkpt>
      <trkpt lat="43.26441" lon="5.98353">
        <ele>211.123</ele>
        <time>2019-10-23T08:27:33.001Z</time>
      </trkpt>
      <trkpt lat="43.266" lon="5.98297">
        <ele>206.663</ele>
        <time>2019-10-23T08:28:06.001Z</time>
      </trkpt>
      <trkpt lat="43.26699" lon="5.98182">
        <ele>207.696</ele>
        <time>2019-10-23T08:28:36.001Z</time>
      </trkpt>
      <trkpt lat="43.26784" lon="5.97996">
        <ele>202.837</ele>
        <time>2019-10-23T08:29:06.001Z</time>
      </trkpt>
      <trkpt lat="43.26748" lon="5.97834">
        <ele>205.114</ele>
        <time>2019-10-23T08:29:36.001Z</time>
      </trkpt>
      <trkpt lat="43.26721" lon="5.97697">
        <ele>209.305</ele>
        <time>2019-10-23T08:30:09.001Z</time>
      </trkpt>
      <trkpt lat="43.26687" lon="5.97589">
        <ele>211.014</ele>
        <time>2019-10-23T08:30:39.001Z</time>
      </trkpt>
      <trkpt lat="43.26684" lon="5.97496">
        <ele>217.526</ele>
        <time>2019-10-23T08:31:09.001Z</time>
      </trkpt>
      <trkpt lat="43.26724" lon="5.97425">
        <ele>222.886</ele>
        <time>2019-10-23T08:31:39.001Z</time>
      </trkpt>
      <trkpt lat="43.26697" lon="5.97294">
        <ele>226.444</ele>
        <time>2019-10-23T08:32:09.001Z</time>
      </trkpt>
      <trkpt lat="43.26636" lon="5.97127">
        <ele>224.748</ele>
        <time>2019-10-23T08:32:42.001Z</time>
      </trkpt>
      <trkpt lat="43.2657" lon="5.96977">
        <ele>224.018</ele>
        <time>2019-10-23T08:33:12.001Z</time>
      </trkpt>
      <trkpt lat="43.26602" lon="5.96836">
        <ele>223.264</ele>
        <time>2019-10-23T08:33:42.001Z</time>
      </trkpt>
      <trkpt lat="43.26525" lon="5.96718">
        <ele>226.91</ele>
        <time>2019-10-23T08:34:12.001Z</time>
      </trkpt>
      <trkpt lat="43.26491" lon="5.96553">
        <ele>228.653</ele>
        <time>2019-10-23T08:34:45.001Z</time>
      </trkpt>
      <trkpt lat="43.26438" lon="5.9642">
        <ele>231.234</ele>
        <time>2019-10-23T08:35:15.001Z</time>
      </trkpt>
      <trkpt lat="43.26375" lon="5.96366">
        <ele>226.248</ele>
        <time>2019-10-23T08:42:48.001Z</time>
      </trkpt>
      <trkpt lat="43.26354" lon="5.96253">
        <ele>233.304</ele>
        <time>2019-10-23T08:43:18.001Z</time>
      </trkpt>
      <trkpt lat="43.26385" lon="5.96112">
        <ele>235.674</ele>
        <time>2019-10-23T08:43:48.001Z</time>
      </trkpt>
      <trkpt lat="43.26433" lon="5.95953">
        <ele>238.91</ele>
        <time>2019-10-23T08:44:21.001Z</time>
      </trkpt>
      <trkpt lat="43.26476" lon="5.95815">
        <ele>243.349</ele>
        <time>2019-10-23T08:44:51.001Z</time>
      </trkpt>
      <trkpt lat="43.26545" lon="5.9568">
        <ele>241.249</ele>
        <time>2019-10-23T08:45:21.001Z</time>
      </trkpt>
      <trkpt lat="43.26596" lon="5.95571">
        <ele>241.79</ele>
        <time>2019-10-23T08:45:51.001Z</time>
      </trkpt>
      <trkpt lat="43.26653" lon="5.95456">
        <ele>243.803</ele>
        <time>2019-10-23T08:46:24.001Z</time>
      </trkpt>
      <trkpt lat="43.26625" lon="5.95329">
        <ele>258.715</ele>
        <time>2019-10-23T08:46:54.001Z</time>
      </trkpt>
      <trkpt lat="43.26547" lon="5.95225">
        <ele>260.277</ele>
        <time>2019-10-23T08:47:24.001Z</time>
      </trkpt>
      <trkpt lat="43.26452" lon="5.95134">
        <ele>262.756</ele>
        <time>2019-10-23T08:47:54.001Z</time>
      </trkpt>
      <trkpt lat="43.2642" lon="5.94975">
        <ele>252.895</ele>
        <time>2019-10-23T08:48:24.001Z</time>
      </trkpt>
      <trkpt lat="43.26476" lon="5.94881">
        <ele>255.062</ele>
        <time>2019-10-23T08:48:57.001Z</time>
      </trkpt>
      <trkpt lat="43.26534" lon="5.9479">
        <ele>262.128</ele>
        <time>2019-10-23T08:49:27.001Z</time>
      </trkpt>
      <trkpt lat="43.26581" lon="5.94698">
        <ele>258.917</ele>
        <time>2019-10-23T08:49:57.001Z</time>
      </trkpt>
      <trkpt lat="43.26648" lon="5.9466">
        <ele>263.823</ele>
        <time>2019-10-23T08:50:27.001Z</time>
      </trkpt>
      <trkpt lat="43.26729" lon="5.94605">
        <ele>267.941</ele>
        <time>2019-10-23T08:51:00Z</time>
      </trkpt>
      <trkpt lat="43.26803" lon="5.9453">
        <ele>270.196</ele>
        <time>2019-10-23T08:51:30.001Z</time>
      </trkpt>
      <trkpt lat="43.26844" lon="5.94403">
        <ele>266.939</ele>
        <time>2019-10-23T08:52:00Z</time>
      </trkpt>
      <trkpt lat="43.2691" lon="5.94315">
        <ele>265.372</ele>
        <time>2019-10-23T08:52:30.001Z</time>
      </trkpt>
      <trkpt lat="43.2697" lon="5.94239">
        <ele>273.487</ele>
        <time>2019-10-23T08:53:00Z</time>
      </trkpt>
      <trkpt lat="43.27061" lon="5.94186">
        <ele>277.5</ele>
        <time>2019-10-23T08:53:33.001Z</time>
      </trkpt>
      <trkpt lat="43.27167" lon="5.94236">
        <ele>284.221</ele>
        <time>2019-10-23T08:54:03.001Z</time>
      </trkpt>
      <trkpt lat="43.27258" lon="5.9419">
        <ele>292.123</ele>
        <time>2019-10-23T08:54:33.001Z</time>
      </trkpt>
      <trkpt lat="43.27242" lon="5.94008">
        <ele>286.683</ele>
        <time>2019-10-23T08:55:03.001Z</time>
      </trkpt>
      <trkpt lat="43.27277" lon="5.93822">
        <ele>285.238</ele>
        <time>2019-10-23T08:55:36.001Z</time>
      </trkpt>
      <trkpt lat="43.27297" lon="5.93675">
        <ele>289.251</ele>
        <time>2019-10-23T08:56:06.001Z</time>
      </trkpt>
      <trkpt lat="43.27349" lon="5.93545">
        <ele>286.505</ele>
        <time>2019-10-23T08:56:36.001Z</time>
      </trkpt>
      <trkpt lat="43.27396" lon="5.93396">
        <ele>283.893</ele>
        <time>2019-10-23T08:57:06.001Z</time>
      </trkpt>
      <trkpt lat="43.27454" lon="5.93262">
        <ele>292.466</ele>
        <time>2019-10-23T08:57:36.001Z</time>
      </trkpt>
      <trkpt lat="43.27518" lon="5.931">
        <ele>291.095</ele>
        <time>2019-10-23T08:58:09.001Z</time>
      </trkpt>
      <trkpt lat="43.27565" lon="5.92961">
        <ele>295.081</ele>
        <time>2019-10-23T08:58:39.001Z</time>
      </trkpt>
      <trkpt lat="43.27548" lon="5.92808">
        <ele>297.964</ele>
        <time>2019-10-23T08:59:09.001Z</time>
      </trkpt>
      <trkpt lat="43.27548" lon="5.92663">
        <ele>302.877</ele>
        <time>2019-10-23T08:59:39.001Z</time>
      </trkpt>
      <trkpt lat="43.27544" lon="5.9248">
        <ele>301.618</ele>
        <time>2019-10-23T09:00:12.001Z</time>
      </trkpt>
      <trkpt lat="43.2758" lon="5.92358">
        <ele>296.308</ele>
        <time>2019-10-23T09:00:42.001Z</time>
      </trkpt>
      <trkpt lat="43.27559" lon="5.92246">
        <ele>298.41</ele>
        <time>2019-10-23T09:01:12.001Z</time>
      </trkpt>
      <trkpt lat="43.27493" lon="5.92173">
        <ele>304.836</ele>
        <time>2019-10-23T09:01:42.001Z</time>
      </trkpt>
      <trkpt lat="43.27441" lon="5.92016">
        <ele>307.092</ele>
        <time>2019-10-23T09:02:12.001Z</time>
      </trkpt>
      <trkpt lat="43.2746" lon="5.91834">
        <ele>304.236</ele>
        <time>2019-10-23T09:02:45.001Z</time>
      </trkpt>
      <trkpt lat="43.27414" lon="5.91723">
        <ele>309.284</ele>
        <time>2019-10-23T09:03:15.001Z</time>
      </trkpt>
      <trkpt lat="43.27434" lon="5.91597">
        <ele>308.571</ele>
        <time>2019-10-23T09:03:45.001Z</time>
      </trkpt>
      <trkpt lat="43.2754" lon="5.91458">
        <ele>308.475</ele>
        <time>2019-10-23T09:04:15.001Z</time>
      </trkpt>
      <trkpt lat="43.2765" lon="5.91311">
        <ele>311.264</ele>
        <time>2019-10-23T09:04:48.001Z</time>
      </trkpt>
      <trkpt lat="43.27711" lon="5.91171">
        <ele>314.347</ele>
        <time>2019-10-23T09:05:18.001Z</time>
      </trkpt>
      <trkpt lat="43.27777" lon="5.91073">
        <ele>316.86</ele>
        <time>2019-10-23T09:05:48.001Z</time>
      </trkpt>
      <trkpt lat="43.27844" lon="5.91005">
        <ele>320.151</ele>
        <time>2019-10-23T09:06:18.001Z</time>
      </trkpt>
      <trkpt lat="43.27877" lon="5.90886">
        <ele>319.737</ele>
        <time>2019-10-23T09:06:48.001Z</time>
      </trkpt>
      <trkpt lat="43.27956" lon="5.9081">
        <ele>321.539</ele>
        <time>2019-10-23T09:07:21.001Z</time>
      </trkpt>
      <trkpt lat="43.27992" lon="5.90623">
        <ele>324.51</ele>
        <time>2019-10-23T09:07:51.001Z</time>
      </trkpt>
      <trkpt lat="43.28055" lon="5.90341">
        <ele>312.19</ele>
        <time>2019-10-23T09:08:21.001Z</time>
      </trkpt>
      <trkpt lat="43.2813" lon="5.90146">
        <ele>310.885</ele>
        <time>2019-10-23T09:08:51.001Z</time>
      </trkpt>
      <trkpt lat="43.28225" lon="5.89956">
        <ele>318.604</ele>
        <time>2019-10-23T09:09:24.001Z</time>
      </trkpt>
      <trkpt lat="43.28315" lon="5.89765">
        <ele>319.282</ele>
        <time>2019-10-23T09:09:54.001Z</time>
      </trkpt>
      <trkpt lat="43.28385" lon="5.89552">
        <ele>311.366</ele>
        <time>2019-10-23T09:10:24.001Z</time>
      </trkpt>
      <trkpt lat="43.28511" lon="5.89367">
        <ele>314.242</ele>
        <time>2019-10-23T09:10:54.001Z</time>
      </trkpt>
      <trkpt lat="43.28616" lon="5.89178">
        <ele>314.131</ele>
        <time>2019-10-23T09:11:24.001Z</time>
      </trkpt>
      <trkpt lat="43.28713" lon="5.88957">
        <ele>312.637</ele>
        <time>2019-10-23T09:11:57.001Z</time>
      </trkpt>
      <trkpt lat="43.28739" lon="5.88718">
        <ele>311.83</ele>
        <time>2019-10-23T09:12:27.001Z</time>
      </trkpt>
      <trkpt lat="43.28723" lon="5.8849">
        <ele>316.933</ele>
        <time>2019-10-23T09:12:57.001Z</time>
      </trkpt>
      <trkpt lat="43.28757" lon="5.88239">
        <ele>312.435</ele>
        <time>2019-10-23T09:13:27.001Z</time>
      </trkpt>
      <trkpt lat="43.28797" lon="5.88002">
        <ele>314.669</ele>
        <time>2019-10-23T09:14:00Z</time>
      </trkpt>
      <trkpt lat="43.28835" lon="5.87776">
        <ele>314.989</ele>
        <time>2019-10-23T09:14:30.001Z</time>
      </trkpt>
      <trkpt lat="43.28866" lon="5.87554">
        <ele>315.023</ele>
        <time>2019-10-23T09:15:00Z</time>
      </trkpt>
      <trkpt lat="43.28901" lon="5.87377">
        <ele>319.263</ele>
        <time>2019-10-23T09:15:30.001Z</time>
      </trkpt>
      <trkpt lat="43.28928" lon="5.87238">
        <ele>324.297</ele>
        <time>2019-10-23T09:16:00Z</time>
      </trkpt>
      <trkpt lat="43.28965" lon="5.87108">
        <ele>326.426</ele>
        <time>2019-10-23T09:16:33.001Z</time>
      </trkpt>
      <trkpt lat="43.29016" lon="5.87005">
        <ele>330.73</ele>
        <time>2019-10-23T09:17:03.001Z</time>
      </trkpt>
      <trkpt lat="43.29037" lon="5.86884">
        <ele>334.567</ele>
        <time>2019-10-23T09:17:33.001Z</time>
      </trkpt>
      <trkpt lat="43.29052" lon="5.86759">
        <ele>341.403</ele>
        <time>2019-10-23T09:18:03.001Z</time>
      </trkpt>
      <trkpt lat="43.29063" lon="5.86612">
        <ele>344.83</ele>
        <time>2019-10-23T09:18:36.001Z</time>
      </trkpt>
      <trkpt lat="43.29043" lon="5.86446">
        <ele>346.607</ele>
        <time>2019-10-23T09:19:06.001Z</time>
      </trkpt>
      <trkpt lat="43.29017" lon="5.86191">
        <ele>346.576</ele>
        <time>2019-10-23T09:19:36.001Z</time>
      </trkpt>
      <trkpt lat="43.29027" lon="5.86024">
        <ele>341.187</ele>
        <time>2019-10-23T09:20:06.001Z</time>
      </trkpt>
      <trkpt lat="43.29023" lon="5.85913">
        <ele>345.611</ele>
        <time>2019-10-23T09:20:36.001Z</time>
      </trkpt>
      <trkpt lat="43.29" lon="5.85811">
        <ele>352.596</ele>
        <time>2019-10-23T09:21:09.001Z</time>
      </trkpt>
      <trkpt lat="43.2899" lon="5.85716">
        <ele>359.009</ele>
        <time>2019-10-23T09:21:39.001Z</time>
      </trkpt>
      <trkpt lat="43.28969" lon="5.85631">
        <ele>364.606</ele>
        <time>2019-10-23T09:22:09.001Z</time>
      </trkpt>
      <trkpt lat="43.28933" lon="5.85554">
        <ele>368.639</ele>
        <time>2019-10-23T09:22:39.001Z</time>
      </trkpt>
      <trkpt lat="43.28891" lon="5.8549">
        <ele>374.118</ele>
        <time>2019-10-23T09:23:09.001Z</time>
      </trkpt>
      <trkpt lat="43.28858" lon="5.854">
        <ele>373.789</ele>
        <time>2019-10-23T09:23:42.001Z</time>
      </trkpt>
      <trkpt lat="43.28858" lon="5.85316">
        <ele>380.215</ele>
        <time>2019-10-23T09:24:12.001Z</time>
      </trkpt>
      <trkpt lat="43.28824" lon="5.85258">
        <ele>382.629</ele>
        <time>2019-10-23T09:24:42.001Z</time>
      </trkpt>
      <trkpt lat="43.288" lon="5.85196">
        <ele>391.446</ele>
        <time>2019-10-23T09:25:15.001Z</time>
      </trkpt>
      <trkpt lat="43.28799" lon="5.85114">
        <ele>399.389</ele>
        <time>2019-10-23T09:25:48.001Z</time>
      </trkpt>
      <trkpt lat="43.28775" lon="5.85041">
        <ele>400.643</ele>
        <time>2019-10-23T09:26:18.001Z</time>
      </trkpt>
      <trkpt lat="43.28741" lon="5.84958">
        <ele>400.866</ele>
        <time>2019-10-23T09:26:51.001Z</time>
      </trkpt>
      <trkpt lat="43.28705" lon="5.84814">
        <ele>404.169</ele>
        <time>2019-10-23T09:27:21.001Z</time>
      </trkpt>
      <trkpt lat="43.28611" lon="5.84751">
        <ele>397.346</ele>
        <time>2019-10-23T09:27:51.001Z</time>
      </trkpt>
      <trkpt lat="43.28554" lon="5.84674">
        <ele>403.89</ele>
        <time>2019-10-23T09:28:24.001Z</time>
      </trkpt>
      <trkpt lat="43.28537" lon="5.84576">
        <ele>407.567</ele>
        <time>2019-10-23T09:28:54.001Z</time>
      </trkpt>
      <trkpt lat="43.28528" lon="5.84452">
        <ele>409.953</ele>
        <time>2019-10-23T09:29:24.001Z</time>
      </trkpt>
      <trkpt lat="43.28499" lon="5.84209">
        <ele>406.24</ele>
        <time>2019-10-23T09:29:54.001Z</time>
      </trkpt>
      <trkpt lat="43.28476" lon="5.83982">
        <ele>405.092</ele>
        <time>2019-10-23T09:30:27.001Z</time>
      </trkpt>
      <trkpt lat="43.28455" lon="5.83794">
        <ele>407.56</ele>
        <time>2019-10-23T09:30:57.001Z</time>
      </trkpt>
      <trkpt lat="43.28421" lon="5.83598">
        <ele>409.997</ele>
        <time>2019-10-23T09:31:27.001Z</time>
      </trkpt>
      <trkpt lat="43.28382" lon="5.8341">
        <ele>409.495</ele>
        <time>2019-10-23T09:31:57.001Z</time>
      </trkpt>
      <trkpt lat="43.28373" lon="5.8321">
        <ele>407.613</ele>
        <time>2019-10-23T09:32:27.001Z</time>
      </trkpt>
      <trkpt lat="43.28362" lon="5.83001">
        <ele>415.555</ele>
        <time>2019-10-23T09:33:00Z</time>
      </trkpt>
      <trkpt lat="43.28307" lon="5.8282">
        <ele>417.849</ele>
        <time>2019-10-23T09:33:30.001Z</time>
      </trkpt>
      <trkpt lat="43.28228" lon="5.82683">
        <ele>418.346</ele>
        <time>2019-10-23T09:34:00Z</time>
      </trkpt>
      <trkpt lat="43.2815" lon="5.82547">
        <ele>420.639</ele>
        <time>2019-10-23T09:34:30.001Z</time>
      </trkpt>
      <trkpt lat="43.28107" lon="5.82361">
        <ele>425.482</ele>
        <time>2019-10-23T09:35:03.001Z</time>
      </trkpt>
      <trkpt lat="43.28057" lon="5.8221">
        <ele>425.442</ele>
        <time>2019-10-23T09:35:33.001Z</time>
      </trkpt>
      <trkpt lat="43.28007" lon="5.82066">
        <ele>427.497</ele>
        <time>2019-10-23T09:36:03.001Z</time>
      </trkpt>
      <trkpt lat="43.27936" lon="5.81955">
        <ele>433.105</ele>
        <time>2019-10-23T09:36:33.001Z</time>
      </trkpt>
      <trkpt lat="43.27888" lon="5.81828">
        <ele>435.695</ele>
        <time>2019-10-23T09:37:03.001Z</time>
      </trkpt>
      <trkpt lat="43.27847" lon="5.8168">
        <ele>438.822</ele>
        <time>2019-10-23T09:37:36.001Z</time>
      </trkpt>
      <trkpt lat="43.27809" lon="5.81542">
        <ele>439.372</ele>
        <time>2019-10-23T09:38:06.001Z</time>
      </trkpt>
      <trkpt lat="43.2778" lon="5.81404">
        <ele>440.268</ele>
        <time>2019-10-23T09:38:36.001Z</time>
      </trkpt>
      <trkpt lat="43.27739" lon="5.81259">
        <ele>441.275</ele>
        <time>2019-10-23T09:39:06.001Z</time>
      </trkpt>
      <trkpt lat="43.27706" lon="5.81095">
        <ele>441.979</ele>
        <time>2019-10-23T09:39:39.001Z</time>
      </trkpt>
      <trkpt lat="43.27707" lon="5.80938">
        <ele>445.269</ele>
        <time>2019-10-23T09:40:09.001Z</time>
      </trkpt>
      <trkpt lat="43.27688" lon="5.80743">
        <ele>447.492</ele>
        <time>2019-10-23T09:40:39.001Z</time>
      </trkpt>
      <trkpt lat="43.27632" lon="5.8056">
        <ele>448.279</ele>
        <time>2019-10-23T09:41:09.001Z</time>
      </trkpt>
      <trkpt lat="43.27542" lon="5.80447">
        <ele>451</ele>
        <time>2019-10-23T09:41:39.001Z</time>
      </trkpt>
      <trkpt lat="43.27533" lon="5.80226">
        <ele>449.561</ele>
        <time>2019-10-23T09:42:12.001Z</time>
      </trkpt>
      <trkpt lat="43.27533" lon="5.79947">
        <ele>445.407</ele>
        <time>2019-10-23T09:42:42.001Z</time>
      </trkpt>
      <trkpt lat="43.275" lon="5.79683">
        <ele>443.147</ele>
        <time>2019-10-23T09:43:12.001Z</time>
      </trkpt>
      <trkpt lat="43.27447" lon="5.79405">
        <ele>440.988</ele>
        <time>2019-10-23T09:43:42.001Z</time>
      </trkpt>
      <trkpt lat="43.27268" lon="5.79281">
        <ele>448.777</ele>
        <time>2019-10-23T09:44:15.001Z</time>
      </trkpt>
      <trkpt lat="43.27174" lon="5.79184">
        <ele>451.852</ele>
        <time>2019-10-23T09:44:45.001Z</time>
      </trkpt>
      <trkpt lat="43.27087" lon="5.79036">
        <ele>455.334</ele>
        <time>2019-10-23T09:45:15.001Z</time>
      </trkpt>
      <trkpt lat="43.27025" lon="5.7883">
        <ele>453.746</ele>
        <time>2019-10-23T09:45:45.001Z</time>
      </trkpt>
      <trkpt lat="43.26953" lon="5.78451">
        <ele>444.203</ele>
        <time>2019-10-23T09:46:15.001Z</time>
      </trkpt>
      <trkpt lat="43.26833" lon="5.77973">
        <ele>430.983</ele>
        <time>2019-10-23T09:46:48.001Z</time>
      </trkpt>
      <trkpt lat="43.26692" lon="5.77613">
        <ele>421.43</ele>
        <time>2019-10-23T09:47:18.001Z</time>
      </trkpt>
      <trkpt lat="43.26558" lon="5.77259">
        <ele>412.258</ele>
        <time>2019-10-23T09:47:48.001Z</time>
      </trkpt>
      <trkpt lat="43.2653" lon="5.76949">
        <ele>411.918</ele>
        <time>2019-10-23T09:48:18.001Z</time>
      </trkpt>
      <trkpt lat="43.26446" lon="5.76665">
        <ele>412.607</ele>
        <time>2019-10-23T09:48:51.001Z</time>
      </trkpt>
      <trkpt lat="43.26361" lon="5.76448">
        <ele>415.807</ele>
        <time>2019-10-23T09:49:21.001Z</time>
      </trkpt>
      <trkpt lat="43.26236" lon="5.76132">
        <ele>408.356</ele>
        <time>2019-10-23T09:49:51.001Z</time>
      </trkpt>
      <trkpt lat="43.26131" lon="5.75898">
        <ele>408.569</ele>
        <time>2019-10-23T09:50:21.001Z</time>
      </trkpt>
      <trkpt lat="43.25998" lon="5.75643">
        <ele>406.011</ele>
        <time>2019-10-23T09:50:51.001Z</time>
      </trkpt>
      <trkpt lat="43.2596" lon="5.75565">
        <ele>406.61</ele>
        <time>2019-10-23T10:01:00Z</time>
      </trkpt>
      <trkpt lat="43.25829" lon="5.7532">
        <ele>399.896</ele>
        <time>2019-10-23T10:01:30.001Z</time>
      </trkpt>
      <trkpt lat="43.25716" lon="5.75121">
        <ele>396.093</ele>
        <time>2019-10-23T10:02:00Z</time>
      </trkpt>
      <trkpt lat="43.25802" lon="5.75045">
        <ele>397.029</ele>
        <time>2019-10-23T10:02:33.001Z</time>
      </trkpt>
      <trkpt lat="43.25979" lon="5.74966">
        <ele>391.469</ele>
        <time>2019-10-23T10:03:06.001Z</time>
      </trkpt>
      <trkpt lat="43.26145" lon="5.74888">
        <ele>389.554</ele>
        <time>2019-10-23T10:03:36.001Z</time>
      </trkpt>
      <trkpt lat="43.26395" lon="5.74871">
        <ele>380.298</ele>
        <time>2019-10-23T10:04:06.001Z</time>
      </trkpt>
      <trkpt lat="43.2658" lon="5.74713">
        <ele>362.533</ele>
        <time>2019-10-23T10:04:36.001Z</time>
      </trkpt>
      <trkpt lat="43.26469" lon="5.74212">
        <ele>342.992</ele>
        <time>2019-10-23T10:05:06.001Z</time>
      </trkpt>
      <trkpt lat="43.26657" lon="5.73759">
        <ele>326.203</ele>
        <time>2019-10-23T10:05:39.001Z</time>
      </trkpt>
      <trkpt lat="43.26861" lon="5.73584">
        <ele>306.731</ele>
        <time>2019-10-23T10:06:09.001Z</time>
      </trkpt>
      <trkpt lat="43.26641" lon="5.73249">
        <ele>292.908</ele>
        <time>2019-10-23T10:06:39.001Z</time>
      </trkpt>
      <trkpt lat="43.26691" lon="5.72817">
        <ele>281.551</ele>
        <time>2019-10-23T10:07:09.001Z</time>
      </trkpt>
      <trkpt lat="43.26898" lon="5.72475">
        <ele>264.993</ele>
        <time>2019-10-23T10:07:42.001Z</time>
      </trkpt>
      <trkpt lat="43.26871" lon="5.7204">
        <ele>257.467</ele>
        <time>2019-10-23T10:08:12.001Z</time>
      </trkpt>
      <trkpt lat="43.27081" lon="5.71808">
        <ele>242.982</ele>
        <time>2019-10-23T10:08:42.001Z</time>
      </trkpt>
      <trkpt lat="43.27349" lon="5.71996">
        <ele>228.65</ele>
        <time>2019-10-23T10:09:12.001Z</time>
      </trkpt>
      <trkpt lat="43.27522" lon="5.71729">
        <ele>214.066</ele>
        <time>2019-10-23T10:09:42.001Z</time>
      </trkpt>
      <trkpt lat="43.27557" lon="5.7136">
        <ele>210.816</ele>
        <time>2019-10-23T10:10:15.001Z</time>
      </trkpt>
      <trkpt lat="43.27567" lon="5.70995">
        <ele>205.004</ele>
        <time>2019-10-23T10:10:45.001Z</time>
      </trkpt>
      <trkpt lat="43.27577" lon="5.70539">
        <ele>191.154</ele>
        <time>2019-10-23T10:11:15.001Z</time>
      </trkpt>
      <trkpt lat="43.27587" lon="5.7025">
        <ele>189.698</ele>
        <time>2019-10-23T10:11:45.001Z</time>
      </trkpt>
      <trkpt lat="43.276" lon="5.70026">
        <ele>197.197</ele>
        <time>2019-10-23T10:12:18.001Z</time>
      </trkpt>
      <trkpt lat="43.27515" lon="5.69707">
        <ele>197.776</ele>
        <time>2019-10-23T10:12:48.001Z</time>
      </trkpt>
      <trkpt lat="43.27393" lon="5.69266">
        <ele>172.888</ele>
        <time>2019-10-23T10:13:18.001Z</time>
      </trkpt>
      <trkpt lat="43.27278" lon="5.68853">
        <ele>162.129</ele>
        <time>2019-10-23T10:13:48.001Z</time>
      </trkpt>
      <trkpt lat="43.27187" lon="5.68535">
        <ele>156.532</ele>
        <time>2019-10-23T10:14:18.001Z</time>
      </trkpt>
      <trkpt lat="43.2711" lon="5.68258">
        <ele>159.153</ele>
        <time>2019-10-23T10:14:51.001Z</time>
      </trkpt>
      <trkpt lat="43.27132" lon="5.68081">
        <ele>162.158</ele>
        <time>2019-10-23T10:15:21.001Z</time>
      </trkpt>
      <trkpt lat="43.27172" lon="5.67991">
        <ele>168.585</ele>
        <time>2019-10-23T10:15:51.001Z</time>
      </trkpt>
      <trkpt lat="43.27155" lon="5.67895">
        <ele>174.334</ele>
        <time>2019-10-23T10:16:21.001Z</time>
      </trkpt>
      <trkpt lat="43.27077" lon="5.67858">
        <ele>178.339</ele>
        <time>2019-10-23T10:16:54.001Z</time>
      </trkpt>
      <trkpt lat="43.27007" lon="5.67825">
        <ele>184.056</ele>
        <time>2019-10-23T10:17:24.001Z</time>
      </trkpt>
      <trkpt lat="43.26956" lon="5.67749">
        <ele>187.781</ele>
        <time>2019-10-23T10:17:54.001Z</time>
      </trkpt>
      <trkpt lat="43.26909" lon="5.67664">
        <ele>191.449</ele>
        <time>2019-10-23T10:18:24.001Z</time>
      </trkpt>
      <trkpt lat="43.2687" lon="5.67581">
        <ele>197.569</ele>
        <time>2019-10-23T10:18:54.001Z</time>
      </trkpt>
      <trkpt lat="43.26821" lon="5.67491">
        <ele>204.484</ele>
        <time>2019-10-23T10:19:27.001Z</time>
      </trkpt>
      <trkpt lat="43.26749" lon="5.67456">
        <ele>202.906</ele>
        <time>2019-10-23T10:19:57.001Z</time>
      </trkpt>
      <trkpt lat="43.26681" lon="5.67421">
        <ele>200.343</ele>
        <time>2019-10-23T10:20:27.001Z</time>
      </trkpt>
      <trkpt lat="43.26614" lon="5.6738">
        <ele>206.108</ele>
        <time>2019-10-23T10:20:57.001Z</time>
      </trkpt>
      <trkpt lat="43.26568" lon="5.67291">
        <ele>213.398</ele>
        <time>2019-10-23T10:21:30.001Z</time>
      </trkpt>
      <trkpt lat="43.26567" lon="5.67191">
        <ele>216.956</ele>
        <time>2019-10-23T10:22:00Z</time>
      </trkpt>
      <trkpt lat="43.26575" lon="5.67097">
        <ele>220.278</ele>
        <time>2019-10-23T10:22:30.001Z</time>
      </trkpt>
      <trkpt lat="43.26586" lon="5.66987">
        <ele>223.852</ele>
        <time>2019-10-23T10:23:00Z</time>
      </trkpt>
      <trkpt lat="43.26604" lon="5.66702">
        <ele>220.02</ele>
        <time>2019-10-23T10:23:30.001Z</time>
      </trkpt>
      <trkpt lat="43.26478" lon="5.66593">
        <ele>197.501</ele>
        <time>2019-10-23T10:24:03.001Z</time>
      </trkpt>
      <trkpt lat="43.2656" lon="5.66341">
        <ele>187.626</ele>
        <time>2019-10-23T10:24:33.001Z</time>
      </trkpt>
      <trkpt lat="43.26739" lon="5.66153">
        <ele>175.212</ele>
        <time>2019-10-23T10:25:03.001Z</time>
      </trkpt>
      <trkpt lat="43.26698" lon="5.65849">
        <ele>171.306</ele>
        <time>2019-10-23T10:25:33.001Z</time>
      </trkpt>
      <trkpt lat="43.26684" lon="5.65417">
        <ele>168.517</ele>
        <time>2019-10-23T10:26:06.001Z</time>
      </trkpt>
      <trkpt lat="43.26731" lon="5.65078">
        <ele>152.644</ele>
        <time>2019-10-23T10:26:36.001Z</time>
      </trkpt>
      <trkpt lat="43.26846" lon="5.64806">
        <ele>141.632</ele>
        <time>2019-10-23T10:27:06.001Z</time>
      </trkpt>
      <trkpt lat="43.27021" lon="5.64599">
        <ele>136.162</ele>
        <time>2019-10-23T10:27:36.001Z</time>
      </trkpt>
      <trkpt lat="43.2719" lon="5.64383">
        <ele>128.964</ele>
        <time>2019-10-23T10:28:06.001Z</time>
      </trkpt>
      <trkpt lat="43.27275" lon="5.64056">
        <ele>130.202</ele>
        <time>2019-10-23T10:28:39.001Z</time>
      </trkpt>
      <trkpt lat="43.27386" lon="5.63774">
        <ele>122.308</ele>
        <time>2019-10-23T10:29:09.001Z</time>
      </trkpt>
      <trkpt lat="43.27461" lon="5.63445">
        <ele>117.039</ele>
        <time>2019-10-23T10:29:39.001Z</time>
      </trkpt>
      <trkpt lat="43.27585" lon="5.63178">
        <ele>112.187</ele>
        <time>2019-10-23T10:30:09.001Z</time>
      </trkpt>
      <trkpt lat="43.27688" lon="5.62862">
        <ele>108.466</ele>
        <time>2019-10-23T10:30:42.001Z</time>
      </trkpt>
      <trkpt lat="43.27705" lon="5.62556">
        <ele>107.031</ele>
        <time>2019-10-23T10:31:12.001Z</time>
      </trkpt>
      <trkpt lat="43.2772" lon="5.62244">
        <ele>104.225</ele>
        <time>2019-10-23T10:31:42.001Z</time>
      </trkpt>
      <trkpt lat="43.27785" lon="5.61992">
        <ele>103.188</ele>
        <time>2019-10-23T10:32:12.001Z</time>
      </trkpt>
      <trkpt lat="43.27789" lon="5.61741">
        <ele>106.416</ele>
        <time>2019-10-23T10:32:42.001Z</time>
      </trkpt>
      <trkpt lat="43.27853" lon="5.61474">
        <ele>109.48</ele>
        <time>2019-10-23T10:33:15.001Z</time>
      </trkpt>
      <trkpt lat="43.27882" lon="5.61361">
        <ele>111.705</ele>
        <time>2019-10-23T10:35:27.001Z</time>
      </trkpt>
      <trkpt lat="43.27949" lon="5.61182">
        <ele>111.731</ele>
        <time>2019-10-23T10:35:57.001Z</time>
      </trkpt>
      <trkpt lat="43.27989" lon="5.60965">
        <ele>108.906</ele>
        <time>2019-10-23T10:36:27.001Z</time>
      </trkpt>
      <trkpt lat="43.28073" lon="5.60705">
        <ele>104.468</ele>
        <time>2019-10-23T10:37:00Z</time>
      </trkpt>
      <trkpt lat="43.28149" lon="5.60499">
        <ele>105.179</ele>
        <time>2019-10-23T10:37:30.001Z</time>
      </trkpt>
      <trkpt lat="43.28225" lon="5.60301">
        <ele>107.92</ele>
        <time>2019-10-23T10:38:00Z</time>
      </trkpt>
      <trkpt lat="43.28267" lon="5.60055">
        <ele>106.101</ele>
        <time>2019-10-23T10:38:30.001Z</time>
      </trkpt>
      <trkpt lat="43.28291" lon="5.59795">
        <ele>106.669</ele>
        <time>2019-10-23T10:39:00Z</time>
      </trkpt>
      <trkpt lat="43.28349" lon="5.5958">
        <ele>111.486</ele>
        <time>2019-10-23T10:39:33.001Z</time>
      </trkpt>
      <trkpt lat="43.28434" lon="5.59438">
        <ele>113.979</ele>
        <time>2019-10-23T10:40:03.001Z</time>
      </trkpt>
      <trkpt lat="43.28465" lon="5.59251">
        <ele>117.2</ele>
        <time>2019-10-23T10:40:33.001Z</time>
      </trkpt>
      <trkpt lat="43.2853" lon="5.59085">
        <ele>122.317</ele>
        <time>2019-10-23T10:41:03.001Z</time>
      </trkpt>
      <trkpt lat="43.28573" lon="5.58933">
        <ele>123.815</ele>
        <time>2019-10-23T10:41:36.001Z</time>
      </trkpt>
      <trkpt lat="43.28616" lon="5.58784">
        <ele>123.841</ele>
        <time>2019-10-23T10:42:06.001Z</time>
      </trkpt>
      <trkpt lat="43.28672" lon="5.58577">
        <ele>121.506</ele>
        <time>2019-10-23T10:42:36.001Z</time>
      </trkpt>
      <trkpt lat="43.28736" lon="5.58305">
        <ele>118.257</ele>
        <time>2019-10-23T10:43:06.001Z</time>
      </trkpt>
      <trkpt lat="43.28779" lon="5.58077">
        <ele>120.114</ele>
        <time>2019-10-23T10:43:36.001Z</time>
      </trkpt>
      <trkpt lat="43.28797" lon="5.5776">
        <ele>110.089</ele>
        <time>2019-10-23T10:44:09.001Z</time>
      </trkpt>
      <trkpt lat="43.28819" lon="5.57478">
        <ele>113.042</ele>
        <time>2019-10-23T10:44:39.001Z</time>
      </trkpt>
      <trkpt lat="43.28917" lon="5.57254">
        <ele>119.573</ele>
        <time>2019-10-23T10:45:09.001Z</time>
      </trkpt>
      <trkpt lat="43.28834" lon="5.57194">
        <ele>114.876</ele>
        <time>2019-10-23T10:45:39.001Z</time>
      </trkpt>
      <trkpt lat="43.2885" lon="5.57074">
        <ele>125.194</ele>
        <time>2019-10-23T10:46:12.001Z</time>
      </trkpt>
      <trkpt lat="43.2891" lon="5.5693">
        <ele>133.598</ele>
        <time>2019-10-23T10:46:42.001Z</time>
      </trkpt>
      <trkpt lat="43.28934" lon="5.56829">
        <ele>124.316</ele>
        <time>2019-10-23T10:47:12.001Z</time>
      </trkpt>
      <trkpt lat="43.28945" lon="5.5674">
        <ele>126.888</ele>
        <time>2019-10-23T10:47:42.001Z</time>
      </trkpt>
      <trkpt lat="43.28938" lon="5.56655">
        <ele>128.922</ele>
        <time>2019-10-23T10:48:12.001Z</time>
      </trkpt>
      <trkpt lat="43.28837" lon="5.56468">
        <ele>126.449</ele>
        <time>2019-10-23T10:48:45.001Z</time>
      </trkpt>
      <trkpt lat="43.2871" lon="5.56129">
        <ele>111.325</ele>
        <time>2019-10-23T10:49:15.001Z</time>
      </trkpt>
      <trkpt lat="43.286" lon="5.55827">
        <ele>94.287</ele>
        <time>2019-10-23T10:49:45.001Z</time>
      </trkpt>
      <trkpt lat="43.28586" lon="5.55545">
        <ele>91.368</ele>
        <time>2019-10-23T10:50:15.001Z</time>
      </trkpt>
      <trkpt lat="43.28545" lon="5.55422">
        <ele>95.476</ele>
        <time>2019-10-23T10:50:57.001Z</time>
      </trkpt>
      <trkpt lat="43.28516" lon="5.55237">
        <ele>96.71</ele>
        <time>2019-10-23T10:51:27.001Z</time>
      </trkpt>
      <trkpt lat="43.28494" lon="5.55039">
        <ele>103.484</ele>
        <time>2019-10-23T10:51:57.001Z</time>
      </trkpt>
      <trkpt lat="43.28483" lon="5.54867">
        <ele>96.943</ele>
        <time>2019-10-23T10:52:27.001Z</time>
      </trkpt>
      <trkpt lat="43.28457" lon="5.54747">
        <ele>96.984</ele>
        <time>2019-10-23T10:53:00Z</time>
      </trkpt>
      <trkpt lat="43.28437" lon="5.54599">
        <ele>96.669</ele>
        <time>2019-10-23T10:53:33.001Z</time>
      </trkpt>
      <trkpt lat="43.28413" lon="5.54391">
        <ele>95.002</ele>
        <time>2019-10-23T10:54:03.001Z</time>
      </trkpt>
      <trkpt lat="43.28386" lon="5.54148">
        <ele>92.046</ele>
        <time>2019-10-23T10:54:33.001Z</time>
      </trkpt>
      <trkpt lat="43.28352" lon="5.53896">
        <ele>87.629</ele>
        <time>2019-10-23T10:55:03.001Z</time>
      </trkpt>
      <trkpt lat="43.2834" lon="5.53562">
        <ele>84.487</ele>
        <time>2019-10-23T10:55:36.001Z</time>
      </trkpt>
      <trkpt lat="43.28326" lon="5.53291">
        <ele>86.442</ele>
        <time>2019-10-23T10:56:06.001Z</time>
      </trkpt>
      <trkpt lat="43.28275" lon="5.53027">
        <ele>87.811</ele>
        <time>2019-10-23T10:56:36.001Z</time>
      </trkpt>
      <trkpt lat="43.2823" lon="5.52802">
        <ele>87.82</ele>
        <time>2019-10-23T10:57:06.001Z</time>
      </trkpt>
      <trkpt lat="43.28194" lon="5.52515">
        <ele>85.696</ele>
        <time>2019-10-23T10:57:36.001Z</time>
      </trkpt>
      <trkpt lat="43.2814" lon="5.52201">
        <ele>82.892</ele>
        <time>2019-10-23T10:58:09.001Z</time>
      </trkpt>
      <trkpt lat="43.28124" lon="5.51912">
        <ele>86.291</ele>
        <time>2019-10-23T10:58:39.001Z</time>
      </trkpt>
      <trkpt lat="43.28144" lon="5.51609">
        <ele>86.329</ele>
        <time>2019-10-23T10:59:09.001Z</time>
      </trkpt>
      <trkpt lat="43.28172" lon="5.51481">
        <ele>87.331</ele>
        <time>2019-10-23T10:59:45.001Z</time>
      </trkpt>
      <trkpt lat="43.28187" lon="5.51196">
        <ele>82.244</ele>
        <time>2019-10-23T11:00:18.001Z</time>
      </trkpt>
      <trkpt lat="43.28217" lon="5.50933">
        <ele>86.792</ele>
        <time>2019-10-23T11:00:48.001Z</time>
      </trkpt>
      <trkpt lat="43.28309" lon="5.50701">
        <ele>84.637</ele>
        <time>2019-10-23T11:01:18.001Z</time>
      </trkpt>
      <trkpt lat="43.28336" lon="5.50395">
        <ele>77.449</ele>
        <time>2019-10-23T11:01:48.001Z</time>
      </trkpt>
      <trkpt lat="43.28357" lon="5.5013">
        <ele>76.845</ele>
        <time>2019-10-23T11:02:18.001Z</time>
      </trkpt>
      <trkpt lat="43.28357" lon="5.49934">
        <ele>74.944</ele>
        <time>2019-10-23T11:02:54.001Z</time>
      </trkpt>
      <trkpt lat="43.28333" lon="5.49756">
        <ele>73.871</ele>
        <time>2019-10-23T11:03:27.001Z</time>
      </trkpt>
      <trkpt lat="43.28353" lon="5.49518">
        <ele>71.538</ele>
        <time>2019-10-23T11:03:57.001Z</time>
      </trkpt>
      <trkpt lat="43.28389" lon="5.49277">
        <ele>72.148</ele>
        <time>2019-10-23T11:04:27.001Z</time>
      </trkpt>
      <trkpt lat="43.28423" lon="5.49021">
        <ele>72.896</ele>
        <time>2019-10-23T11:05:00Z</time>
      </trkpt>
      <trkpt lat="43.28468" lon="5.48815">
        <ele>73.169</ele>
        <time>2019-10-23T11:05:30.001Z</time>
      </trkpt>
      <trkpt lat="43.28478" lon="5.48585">
        <ele>69.899</ele>
        <time>2019-10-23T11:06:00Z</time>
      </trkpt>
      <trkpt lat="43.28489" lon="5.48352">
        <ele>71.894</ele>
        <time>2019-10-23T11:06:30.001Z</time>
      </trkpt>
      <trkpt lat="43.28524" lon="5.48261">
        <ele>70.377</ele>
        <time>2019-10-23T11:07:21.001Z</time>
      </trkpt>
      <trkpt lat="43.28569" lon="5.48028">
        <ele>74.409</ele>
        <time>2019-10-23T11:07:54.001Z</time>
      </trkpt>
      <trkpt lat="43.28615" lon="5.4777">
        <ele>64.017</ele>
        <time>2019-10-23T11:08:24.001Z</time>
      </trkpt>
      <trkpt lat="43.2863" lon="5.47497">
        <ele>59.87</ele>
        <time>2019-10-23T11:08:54.001Z</time>
      </trkpt>
      <trkpt lat="43.28631" lon="5.47241">
        <ele>57.305</ele>
        <time>2019-10-23T11:09:24.001Z</time>
      </trkpt>
      <trkpt lat="43.28633" lon="5.46902">
        <ele>64.641</ele>
        <time>2019-10-23T11:09:57.001Z</time>
      </trkpt>
      <trkpt lat="43.28698" lon="5.4667">
        <ele>65.529</ele>
        <time>2019-10-23T11:10:27.001Z</time>
      </trkpt>
      <trkpt lat="43.2878" lon="5.46435">
        <ele>73.672</ele>
        <time>2019-10-23T11:10:57.001Z</time>
      </trkpt>
      <trkpt lat="43.28868" lon="5.46188">
        <ele>71.186</ele>
        <time>2019-10-23T11:11:27.001Z</time>
      </trkpt>
      <trkpt lat="43.28877" lon="5.4629">
        <ele>61.499</ele>
        <time>2019-10-23T11:11:57.001Z</time>
      </trkpt>
      <trkpt lat="43.28964" lon="5.46308">
        <ele>70.005</ele>
        <time>2019-10-23T11:12:45.001Z</time>
      </trkpt>
      <trkpt lat="43.29019" lon="5.46319">
        <ele>57.4</ele>
        <time>2019-10-23T11:13:15.001Z</time>
      </trkpt>
      <trkpt lat="43.29099" lon="5.46235">
        <ele>56.666</ele>
        <time>2019-10-23T11:13:45.001Z</time>
      </trkpt>
      <trkpt lat="43.29183" lon="5.46019">
        <ele>52.083</ele>
        <time>2019-10-23T11:14:15.001Z</time>
      </trkpt>
      <trkpt lat="43.29266" lon="5.45783">
        <ele>47.489</ele>
        <time>2019-10-23T11:14:48.001Z</time>
      </trkpt>
      <trkpt lat="43.29294" lon="5.45652">
        <ele>53.751</ele>
        <time>2019-10-23T11:15:18.001Z</time>
      </trkpt>
      <trkpt lat="43.29324" lon="5.45513">
        <ele>56.028</ele>
        <time>2019-10-23T11:15:48.001Z</time>
      </trkpt>
      <trkpt lat="43.29355" lon="5.45269">
        <ele>55.832</ele>
        <time>2019-10-23T11:16:18.001Z</time>
      </trkpt>
      <trkpt lat="43.29303" lon="5.45033">
        <ele>47.185</ele>
        <time>2019-10-23T11:16:48.001Z</time>
      </trkpt>
      <trkpt lat="43.29167" lon="5.44731">
        <ele>41.935</ele>
        <time>2019-10-23T11:17:21.001Z</time>
      </trkpt>
      <trkpt lat="43.29194" lon="5.44486">
        <ele>43.953</ele>
        <time>2019-10-23T11:17:51.001Z</time>
      </trkpt>
      <trkpt lat="43.2911" lon="5.44268">
        <ele>42.172</ele>
        <time>2019-10-23T11:18:21.001Z</time>
      </trkpt>
      <trkpt lat="43.29077" lon="5.44048">
        <ele>41.795</ele>
        <time>2019-10-23T11:18:51.001Z</time>
      </trkpt>
      <trkpt lat="43.29058" lon="5.43992">
        <ele>42.892</ele>
        <time>2019-10-23T11:22:21.001Z</time>
      </trkpt>
      <trkpt lat="43.29002" lon="5.43783">
        <ele>39.259</ele>
        <time>2019-10-23T11:22:51.001Z</time>
      </trkpt>
      <trkpt lat="43.28929" lon="5.43674">
        <ele>42.4</ele>
        <time>2019-10-23T11:23:21.001Z</time>
      </trkpt>
      <trkpt lat="43.28902" lon="5.43446">
        <ele>43.114</ele>
        <time>2019-10-23T11:23:51.001Z</time>
      </trkpt>
      <trkpt lat="43.28898" lon="5.43161">
        <ele>43.449</ele>
        <time>2019-10-23T11:24:21.001Z</time>
      </trkpt>
      <trkpt lat="43.28904" lon="5.42815">
        <ele>36.815</ele>
        <time>2019-10-23T11:24:54.001Z</time>
      </trkpt>
      <trkpt lat="43.28993" lon="5.42637">
        <ele>40.676</ele>
        <time>2019-10-23T11:25:57.001Z</time>
      </trkpt>
      <trkpt lat="43.29059" lon="5.42453">
        <ele>39.597</ele>
        <time>2019-10-23T11:26:27.001Z</time>
      </trkpt>
      <trkpt lat="43.29064" lon="5.42239">
        <ele>37.901</ele>
        <time>2019-10-23T11:26:57.001Z</time>
      </trkpt>
      <trkpt lat="43.29053" lon="5.42108">
        <ele>45.077</ele>
        <time>2019-10-23T11:27:30.001Z</time>
      </trkpt>
      <trkpt lat="43.29052" lon="5.42003">
        <ele>52.566</ele>
        <time>2019-10-23T11:28:00Z</time>
      </trkpt>
      <trkpt lat="43.29058" lon="5.41891">
        <ele>58.264</ele>
        <time>2019-10-23T11:28:30.001Z</time>
      </trkpt>
      <trkpt lat="43.29112" lon="5.41735">
        <ele>58.48</ele>
        <time>2019-10-23T11:29:00Z</time>
      </trkpt>
      <trkpt lat="43.29177" lon="5.41454">
        <ele>47.45</ele>
        <time>2019-10-23T11:29:30.001Z</time>
      </trkpt>
      <trkpt lat="43.29167" lon="5.41189">
        <ele>36.085</ele>
        <time>2019-10-23T11:30:03.001Z</time>
      </trkpt>
      <trkpt lat="43.29161" lon="5.40976">
        <ele>40.922</ele>
        <time>2019-10-23T11:30:33.001Z</time>
      </trkpt>
      <trkpt lat="43.29168" lon="5.40877">
        <ele>46.463</ele>
        <time>2019-10-23T11:31:15.001Z</time>
      </trkpt>
      <trkpt lat="43.29163" lon="5.40691">
        <ele>54.287</ele>
        <time>2019-10-23T11:31:45.001Z</time>
      </trkpt>
      <trkpt lat="43.2915" lon="5.40522">
        <ele>50.183</ele>
        <time>2019-10-23T11:32:18.001Z</time>
      </trkpt>
      <trkpt lat="43.29165" lon="5.40394">
        <ele>56.357</ele>
        <time>2019-10-23T11:33:24.001Z</time>
      </trkpt>
      <trkpt lat="43.29198" lon="5.40274">
        <ele>40.132</ele>
        <time>2019-10-23T11:33:57.001Z</time>
      </trkpt>
      <trkpt lat="43.2922" lon="5.40193">
        <ele>36.968</ele>
        <time>2019-10-23T11:34:33.001Z</time>
      </trkpt>
      <trkpt lat="43.29231" lon="5.40113">
        <ele>37.05</ele>
        <time>2019-10-23T11:35:06.001Z</time>
      </trkpt>
      <trkpt lat="43.29166" lon="5.40037">
        <ele>29.992</ele>
        <time>2019-10-23T11:35:42.001Z</time>
      </trkpt>
      <trkpt lat="43.29076" lon="5.39989">
        <ele>33.906</ele>
        <time>2019-10-23T11:36:15.001Z</time>
      </trkpt>
      <trkpt lat="43.28995" lon="5.3999">
        <ele>34.518</ele>
        <time>2019-10-23T11:36:51.001Z</time>
      </trkpt>
      <trkpt lat="43.28895" lon="5.39994">
        <ele>38.154</ele>
        <time>2019-10-23T11:37:24.001Z</time>
      </trkpt>
      <trkpt lat="43.28788" lon="5.39936">
        <ele>44.219</ele>
        <time>2019-10-23T11:37:57.001Z</time>
      </trkpt>
      <trkpt lat="43.28772" lon="5.39811">
        <ele>52.16</ele>
        <time>2019-10-23T11:38:27.001Z</time>
      </trkpt>
      <trkpt lat="43.28766" lon="5.397">
        <ele>39.555</ele>
        <time>2019-10-23T11:38:57.001Z</time>
      </trkpt>
      <trkpt lat="43.2882" lon="5.39655">
        <ele>41.71</ele>
        <time>2019-10-23T11:39:54.001Z</time>
      </trkpt>
      <trkpt lat="43.28877" lon="5.39752">
        <ele>44.597</ele>
        <time>2019-10-23T11:40:24.001Z</time>
      </trkpt>
      <trkpt lat="43.28903" lon="5.39906">
        <ele>43.53</ele>
        <time>2019-10-23T11:40:57.001Z</time>
      </trkpt>
      <trkpt lat="43.2893" lon="5.39989">
        <ele>40.998</ele>
        <time>2019-10-23T11:41:36.001Z</time>
      </trkpt>
      <trkpt lat="43.28999" lon="5.39968">
        <ele>32.699</ele>
        <time>2019-10-23T11:42:06.001Z</time>
      </trkpt>
      <trkpt lat="43.29005" lon="5.39905">
        <ele>34.598</ele>
        <time>2019-10-23T11:45:39.001Z</time>
      </trkpt>
      <trkpt lat="43.28988" lon="5.39866">
        <ele>41.532</ele>
        <time>2019-10-23T11:46:24.001Z</time>
      </trkpt>
      <trkpt lat="43.28982" lon="5.39818">
        <ele>39.871</ele>
        <time>2019-10-23T11:48:15.001Z</time>
      </trkpt>
      <trkpt lat="43.28975" lon="5.39797">
        <ele>43.118</ele>
        <time>2019-10-23T11:49:36.001Z</time>
      </trkpt>
      <trkpt lat="43.28972" lon="5.39774">
        <ele>39.887</ele>
        <time>2019-10-23T11:54:27.001Z</time>
      </trkpt>
      <trkpt lat="43.28967" lon="5.39739">
        <ele>40.943</ele>
        <time>2019-10-23T11:59:30.001Z</time>
      </trkpt>
      <trkpt lat="43.28987" lon="5.39799">
        <ele>31.529</ele>
        <time>2019-10-23T12:01:00Z</time>
      </trkpt>
      <trkpt lat="43.28981" lon="5.39804">
        <ele>31.222</ele>
        <time>2019-10-23T12:03:27.001Z</time>
      </trkpt>
    </trkseg>
  </trk>
</gpx>